East Springfield, Pennsylvania
Current Conditions -  °F | °C
As of 6:51 PM on Friday 28 Nov 2014 (Local Time) from KERI Reporting Station
Broken Clouds Broken Clouds  
Wind Chill: 18°   Ceiling: 4000
Heat Index: 26°   Visibility: 10mi
Dew Point: 14°   Wind: 7mph
Humidity: 60%   Direction: 180°S
Pressure: 30.22"   Gusts: NA
Location:  41.96°N, 80.41°W
Report Text: KERI 282351Z 18006KT 10SM BKN040 M03/M10 A3022 RMK AO2 SLP245 60000 T10331100 11022 21033 58003
Loading
Personal Weather Stations






























Interactive Weather Map New forecast layout! Learn more

10-Day Weather Forecast

Advertisements
Track Severe Weather on mobile